sensor_id;sensor_type;location;lat;lon;timestamp;temperature;humidity
19864;DHT22;10094;48.820;9.226;2023-07-20T00:00:40;21.80;91.20
19864;DHT22;10094;48.820;9.226;2023-07-20T00:07:26;21.80;90.60
19864;DHT22;10094;48.820;9.226;2023-07-20T00:14:08;21.70;90.00
19864;DHT22;10094;48.820;9.226;2023-07-20T00:20:51;21.60;90.40
19864;DHT22;10094;48.820;9.226;2023-07-20T00:27:37;21.40;89.40
19864;DHT22;10094;48.820;9.226;2023-07-20T00:34:20;21.30;87.70
19864;DHT22;10094;48.820;9.226;2023-07-20T00:41:03;21.20;87.20
19864;DHT22;10094;48.820;9.226;2023-07-20T00:47:46;21.10;86.00
19864;DHT22;10094;48.820;9.226;2023-07-20T00:54:29;20.90;86.00
19864;DHT22;10094;48.820;9.226;2023-07-20T01:01:12;20.80;86.00
19864;DHT22;10094;48.820;9.226;2023-07-20T01:08:00;20.70;86.00
19864;DHT22;10094;48.820;9.226;2023-07-20T01:14:45;20.60;86.30
19864;DHT22;10094;48.820;9.226;2023-07-20T01:21:55;20.40;86.70
19864;DHT22;10094;48.820;9.226;2023-07-20T01:29:00;20.40;86.80
19864;DHT22;10094;48.820;9.226;2023-07-20T01:35:54;20.30;88.00
19864;DHT22;10094;48.820;9.226;2023-07-20T01:42:37;20.20;88.80
19864;DHT22;10094;48.820;9.226;2023-07-20T01:49:20;20.10;89.90
19864;DHT22;10094;48.820;9.226;2023-07-20T01:56:02;20.00;90.30
19864;DHT22;10094;48.820;9.226;2023-07-20T02:02:45;19.90;90.80
19864;DHT22;10094;48.820;9.226;2023-07-20T02:09:28;19.80;91.10
19864;DHT22;10094;48.820;9.226;2023-07-20T02:16:11;19.70;91.70
19864;DHT22;10094;48.820;9.226;2023-07-20T02:22:54;19.60;92.50
19864;DHT22;10094;48.820;9.226;2023-07-20T02:29:37;19.50;92.70
19864;DHT22;10094;48.820;9.226;2023-07-20T02:36:19;19.50;93.20
19864;DHT22;10094;48.820;9.226;2023-07-20T02:43:02;19.40;93.60
19864;DHT22;10094;48.820;9.226;2023-07-20T02:49:45;19.30;94.20
19864;DHT22;10094;48.820;9.226;2023-07-20T02:56:28;19.20;96.60
19864;DHT22;10094;48.820;9.226;2023-07-20T03:03:11;19.10;96.40
19864;DHT22;10094;48.820;9.226;2023-07-20T03:09:54;19.00;95.90
19864;DHT22;10094;48.820;9.226;2023-07-20T03:16:37;19.00;99.90
19864;DHT22;10094;48.820;9.226;2023-07-20T03:23:20;18.90;98.70
19864;DHT22;10094;48.820;9.226;2023-07-20T03:30:03;18.90;99.90
19864;DHT22;10094;48.820;9.226;2023-07-20T03:36:46;18.90;99.90
19864;DHT22;10094;48.820;9.226;2023-07-20T03:43:29;18.80;99.90
19864;DHT22;10094;48.820;9.226;2023-07-20T03:50:12;18.70;99.90
19864;DHT22;10094;48.820;9.226;2023-07-20T03:56:55;18.70;99.90
19864;DHT22;10094;48.820;9.226;2023-07-20T04:03:37;18.70;99.90
19864;DHT22;10094;48.820;9.226;2023-07-20T04:10:20;18.60;99.90
19864;DHT22;10094;48.820;9.226;2023-07-20T04:17:07;18.60;99.90
19864;DHT22;10094;48.820;9.226;2023-07-20T04:23:49;18.60;99.90
19864;DHT22;10094;48.820;9.226;2023-07-20T04:30:33;18.70;99.90
19864;DHT22;10094;48.820;9.226;2023-07-20T04:37:16;19.10;99.90
19864;DHT22;10094;48.820;9.226;2023-07-20T04:44:00;19.10;99.90
19864;DHT22;10094;48.820;9.226;2023-07-20T04:50:45;19.20;99.90
19864;DHT22;10094;48.820;9.226;2023-07-20T04:57:29;19.40;99.90
19864;DHT22;10094;48.820;9.226;2023-07-20T05:04:13;19.60;99.90
19864;DHT22;10094;48.820;9.226;2023-07-20T05:10:59;19.80;99.90
19864;DHT22;10094;48.820;9.226;2023-07-20T05:17:41;23.50;94.30
19864;DHT22;10094;48.820;9.226;2023-07-20T05:24:24;26.40;84.30
19864;DHT22;10094;48.820;9.226;2023-07-20T05:31:07;28.60;79.30
19864;DHT22;10094;48.820;9.226;2023-07-20T05:37:50;30.00;74.80
19864;DHT22;10094;48.820;9.226;2023-07-20T05:44:32;30.90;71.40
19864;DHT22;10094;48.820;9.226;2023-07-20T05:51:15;31.80;69.70
19864;DHT22;10094;48.820;9.226;2023-07-20T05:57:58;32.30;68.10
19864;DHT22;10094;48.820;9.226;2023-07-20T06:04:40;32.10;66.60
19864;DHT22;10094;48.820;9.226;2023-07-20T06:11:23;33.00;65.90
19864;DHT22;10094;48.820;9.226;2023-07-20T06:18:05;33.70;64.70
19864;DHT22;10094;48.820;9.226;2023-07-20T06:24:48;34.60;63.10
19864;DHT22;10094;48.820;9.226;2023-07-20T06:31:30;34.70;62.70
19864;DHT22;10094;48.820;9.226;2023-07-20T06:38:13;32.70;63.10
19864;DHT22;10094;48.820;9.226;2023-07-20T06:44:58;33.90;63.30
19864;DHT22;10094;48.820;9.226;2023-07-20T06:51:41;34.00;63.20
19864;DHT22;10094;48.820;9.226;2023-07-20T06:58:24;33.20;63.30
19864;DHT22;10094;48.820;9.226;2023-07-20T07:05:07;30.90;65.00
19864;DHT22;10094;48.820;9.226;2023-07-20T07:11:52;31.20;65.20
19864;DHT22;10094;48.820;9.226;2023-07-20T07:18:35;34.30;63.10
19864;DHT22;10094;48.820;9.226;2023-07-20T07:25:18;35.80;61.10
19864;DHT22;10094;48.820;9.226;2023-07-20T07:32:06;34.20;61.10
19864;DHT22;10094;48.820;9.226;2023-07-20T07:38:48;33.70;61.60
19864;DHT22;10094;48.820;9.226;2023-07-20T07:45:53;35.10;60.90
19864;DHT22;10094;48.820;9.226;2023-07-20T07:52:36;32.90;61.50
19864;DHT22;10094;48.820;9.226;2023-07-20T07:59:19;34.70;61.00
19864;DHT22;10094;48.820;9.226;2023-07-20T08:06:02;36.30;60.10
19864;DHT22;10094;48.820;9.226;2023-07-20T08:12:46;37.50;58.50
19864;DHT22;10094;48.820;9.226;2023-07-20T08:19:29;36.00;57.90
19864;DHT22;10094;48.820;9.226;2023-07-20T08:26:12;33.60;58.50
19864;DHT22;10094;48.820;9.226;2023-07-20T08:32:54;31.70;60.40
19864;DHT22;10094;48.820;9.226;2023-07-20T08:39:37;31.20;61.30
19864;DHT22;10094;48.820;9.226;2023-07-20T08:46:20;28.80;62.30
19864;DHT22;10094;48.820;9.226;2023-07-20T08:53:03;32.40;61.40
19864;DHT22;10094;48.820;9.226;2023-07-20T08:59:46;35.00;59.40
19864;DHT22;10094;48.820;9.226;2023-07-20T09:06:28;35.10;57.20
19864;DHT22;10094;48.820;9.226;2023-07-20T09:13:15;34.10;57.30
19864;DHT22;10094;48.820;9.226;2023-07-20T09:19:58;34.10;56.30
19864;DHT22;10094;48.820;9.226;2023-07-20T09:26:42;32.80;57.60
19864;DHT22;10094;48.820;9.226;2023-07-20T09:33:29;32.40;58.80
19864;DHT22;10094;48.820;9.226;2023-07-20T09:40:15;31.00;60.90
19864;DHT22;10094;48.820;9.226;2023-07-20T09:46:57;29.00;60.50
19864;DHT22;10094;48.820;9.226;2023-07-20T09:53:41;32.40;59.80
19864;DHT22;10094;48.820;9.226;2023-07-20T10:00:23;34.60;56.30
19864;DHT22;10094;48.820;9.226;2023-07-20T10:07:11;33.30;55.00
19864;DHT22;10094;48.820;9.226;2023-07-20T10:13:56;33.50;53.80
19864;DHT22;10094;48.820;9.226;2023-07-20T10:20:41;34.20;53.50
19864;DHT22;10094;48.820;9.226;2023-07-20T10:27:44;33.50;54.30
19864;DHT22;10094;48.820;9.226;2023-07-20T10:34:27;32.70;53.10
19864;DHT22;10094;48.820;9.226;2023-07-20T10:41:22;32.00;53.10
19864;DHT22;10094;48.820;9.226;2023-07-20T10:48:23;30.50;54.20
19864;DHT22;10094;48.820;9.226;2023-07-20T10:55:16;30.10;54.20
19864;DHT22;10094;48.820;9.226;2023-07-20T11:01:59;30.10;53.90
19864;DHT22;10094;48.820;9.226;2023-07-20T11:08:43;29.60;56.00
19864;DHT22;10094;48.820;9.226;2023-07-20T11:16:02;29.70;54.60
19864;DHT22;10094;48.820;9.226;2023-07-20T11:22:47;28.90;54.80
19864;DHT22;10094;48.820;9.226;2023-07-20T11:29:30;28.30;54.80
19864;DHT22;10094;48.820;9.226;2023-07-20T11:36:15;28.60;54.90
19864;DHT22;10094;48.820;9.226;2023-07-20T11:43:01;27.20;55.70
19864;DHT22;10094;48.820;9.226;2023-07-20T11:49:46;26.90;56.00
19864;DHT22;10094;48.820;9.226;2023-07-20T11:56:33;26.70;55.40
19864;DHT22;10094;48.820;9.226;2023-07-20T12:29:49;27.40;54.60
19864;DHT22;10094;48.820;9.226;2023-07-20T12:36:46;27.30;55.20
19864;DHT22;10094;48.820;9.226;2023-07-20T12:43:29;26.90;55.50
19864;DHT22;10094;48.820;9.226;2023-07-20T12:50:15;26.80;56.00
19864;DHT22;10094;48.820;9.226;2023-07-20T12:56:57;27.60;56.10
19864;DHT22;10094;48.820;9.226;2023-07-20T13:03:43;27.30;55.80
19864;DHT22;10094;48.820;9.226;2023-07-20T13:10:29;27.30;54.40
19864;DHT22;10094;48.820;9.226;2023-07-20T13:17:11;27.30;54.20
19864;DHT22;10094;48.820;9.226;2023-07-20T13:23:54;27.40;54.60
19864;DHT22;10094;48.820;9.226;2023-07-20T13:30:36;27.20;54.60
19864;DHT22;10094;48.820;9.226;2023-07-20T13:37:22;27.20;53.90
19864;DHT22;10094;48.820;9.226;2023-07-20T13:44:04;27.30;53.40
19864;DHT22;10094;48.820;9.226;2023-07-20T13:50:48;27.00;53.10
19864;DHT22;10094;48.820;9.226;2023-07-20T13:57:42;27.40;54.30
19864;DHT22;10094;48.820;9.226;2023-07-20T14:04:25;26.60;55.00
19864;DHT22;10094;48.820;9.226;2023-07-20T14:11:08;26.70;55.20
19864;DHT22;10094;48.820;9.226;2023-07-20T14:17:53;27.40;55.00
19864;DHT22;10094;48.820;9.226;2023-07-20T14:24:36;27.50;53.40
19864;DHT22;10094;48.820;9.226;2023-07-20T14:31:18;27.30;53.70
19864;DHT22;10094;48.820;9.226;2023-07-20T14:38:02;27.00;53.20
19864;DHT22;10094;48.820;9.226;2023-07-20T14:44:45;27.20;52.70
19864;DHT22;10094;48.820;9.226;2023-07-20T14:51:27;27.40;52.90
19864;DHT22;10094;48.820;9.226;2023-07-20T14:58:16;27.20;51.90
19864;DHT22;10094;48.820;9.226;2023-07-20T15:05:00;26.90;51.30
19864;DHT22;10094;48.820;9.226;2023-07-20T15:11:42;27.10;51.30
19864;DHT22;10094;48.820;9.226;2023-07-20T15:18:25;27.10;51.90
19864;DHT22;10094;48.820;9.226;2023-07-20T15:25:26;26.90;52.70
19864;DHT22;10094;48.820;9.226;2023-07-20T15:32:09;27.20;51.50
19864;DHT22;10094;48.820;9.226;2023-07-20T15:38:51;27.10;51.10
19864;DHT22;10094;48.820;9.226;2023-07-20T15:45:35;27.10;52.20
19864;DHT22;10094;48.820;9.226;2023-07-20T15:52:17;27.40;51.60
19864;DHT22;10094;48.820;9.226;2023-07-20T15:59:00;26.80;53.10
19864;DHT22;10094;48.820;9.226;2023-07-20T16:05:43;27.10;52.10
19864;DHT22;10094;48.820;9.226;2023-07-20T16:12:26;27.10;52.50
19864;DHT22;10094;48.820;9.226;2023-07-20T16:19:10;26.90;52.60
19864;DHT22;10094;48.820;9.226;2023-07-20T16:25:53;26.90;52.60
19864;DHT22;10094;48.820;9.226;2023-07-20T16:32:35;26.70;52.40
19864;DHT22;10094;48.820;9.226;2023-07-20T16:39:18;26.80;53.70
19864;DHT22;10094;48.820;9.226;2023-07-20T16:46:05;26.90;52.70
19864;DHT22;10094;48.820;9.226;2023-07-20T16:52:51;26.70;52.20
19864;DHT22;10094;48.820;9.226;2023-07-20T16:59:34;26.60;52.00
19864;DHT22;10094;48.820;9.226;2023-07-20T17:06:17;26.60;51.80
19864;DHT22;10094;48.820;9.226;2023-07-20T17:13:00;26.50;52.50
19864;DHT22;10094;48.820;9.226;2023-07-20T17:19:42;26.60;52.60
19864;DHT22;10094;48.820;9.226;2023-07-20T17:26:25;26.50;52.50
19864;DHT22;10094;48.820;9.226;2023-07-20T17:33:10;26.30;52.40
19864;DHT22;10094;48.820;9.226;2023-07-20T17:39:52;26.10;52.90
19864;DHT22;10094;48.820;9.226;2023-07-20T17:46:39;25.90;52.80
19864;DHT22;10094;48.820;9.226;2023-07-20T17:53:24;25.90;53.00
19864;DHT22;10094;48.820;9.226;2023-07-20T18:00:10;25.90;53.50
19864;DHT22;10094;48.820;9.226;2023-07-20T18:06:56;25.80;53.20
19864;DHT22;10094;48.820;9.226;2023-07-20T18:13:39;25.60;53.20
19864;DHT22;10094;48.820;9.226;2023-07-20T18:20:21;25.50;54.00
19864;DHT22;10094;48.820;9.226;2023-07-20T18:27:04;25.30;57.20
19864;DHT22;10094;48.820;9.226;2023-07-20T18:42:34;24.80;57.50
19864;DHT22;10094;48.820;9.226;2023-07-20T19:15:50;23.90;60.00
19864;DHT22;10094;48.820;9.226;2023-07-20T19:22:34;23.80;61.20
19864;DHT22;10094;48.820;9.226;2023-07-20T19:29:17;23.70;60.60
19864;DHT22;10094;48.820;9.226;2023-07-20T19:36:00;23.60;62.20
19864;DHT22;10094;48.820;9.226;2023-07-20T19:42:43;23.40;63.20
19864;DHT22;10094;48.820;9.226;2023-07-20T19:49:29;23.30;63.40
19864;DHT22;10094;48.820;9.226;2023-07-20T19:56:12;23.30;64.40
19864;DHT22;10094;48.820;9.226;2023-07-20T20:02:55;23.10;64.30
19864;DHT22;10094;48.820;9.226;2023-07-20T20:09:40;23.00;64.70
19864;DHT22;10094;48.820;9.226;2023-07-20T20:16:23;22.80;64.10
19864;DHT22;10094;48.820;9.226;2023-07-20T20:23:16;22.70;65.10
19864;DHT22;10094;48.820;9.226;2023-07-20T20:29:59;22.50;67.00
19864;DHT22;10094;48.820;9.226;2023-07-20T20:36:42;22.40;71.70
19864;DHT22;10094;48.820;9.226;2023-07-20T20:43:25;22.20;73.10
19864;DHT22;10094;48.820;9.226;2023-07-20T20:50:20;22.00;72.60
19864;DHT22;10094;48.820;9.226;2023-07-20T20:57:04;21.80;79.40
19864;DHT22;10094;48.820;9.226;2023-07-20T21:03:49;21.70;78.10
19864;DHT22;10094;48.820;9.226;2023-07-20T21:10:32;21.60;80.20
19864;DHT22;10094;48.820;9.226;2023-07-20T21:17:14;21.40;80.80
19864;DHT22;10094;48.820;9.226;2023-07-20T21:23:57;21.30;84.20
19864;DHT22;10094;48.820;9.226;2023-07-20T21:30:40;21.30;85.10
19864;DHT22;10094;48.820;9.226;2023-07-20T21:37:26;21.20;83.40
19864;DHT22;10094;48.820;9.226;2023-07-20T21:44:09;21.10;84.10
19864;DHT22;10094;48.820;9.226;2023-07-20T21:50:54;21.00;86.90
19864;DHT22;10094;48.820;9.226;2023-07-20T21:57:37;20.80;87.10
19864;DHT22;10094;48.820;9.226;2023-07-20T22:04:20;20.70;89.80
19864;DHT22;10094;48.820;9.226;2023-07-20T22:11:05;20.50;88.00
19864;DHT22;10094;48.820;9.226;2023-07-20T22:17:48;20.20;90.50
19864;DHT22;10094;48.820;9.226;2023-07-20T22:24:32;20.00;90.20
19864;DHT22;10094;48.820;9.226;2023-07-20T22:31:15;19.90;92.20
19864;DHT22;10094;48.820;9.226;2023-07-20T22:37:59;19.80;92.30
19864;DHT22;10094;48.820;9.226;2023-07-20T22:44:41;19.70;91.20
19864;DHT22;10094;48.820;9.226;2023-07-20T22:51:24;19.50;94.20
19864;DHT22;10094;48.820;9.226;2023-07-20T22:58:07;19.30;96.50
19864;DHT22;10094;48.820;9.226;2023-07-20T23:04:51;19.30;96.50
19864;DHT22;10094;48.820;9.226;2023-07-20T23:11:36;19.10;99.20
19864;DHT22;10094;48.820;9.226;2023-07-20T23:18:20;19.10;99.10
19864;DHT22;10094;48.820;9.226;2023-07-20T23:25:07;19.10;98.70
19864;DHT22;10094;48.820;9.226;2023-07-20T23:31:51;19.10;99.20
19864;DHT22;10094;48.820;9.226;2023-07-20T23:38:36;19.20;99.90
19864;DHT22;10094;48.820;9.226;2023-07-20T23:45:18;19.20;99.10
19864;DHT22;10094;48.820;9.226;2023-07-20T23:52:01;19.20;98.70
19864;DHT22;10094;48.820;9.226;2023-07-20T23:58:44;19.20;99.30
